LEXJ/SDR METAR and TAF weather

Enter ICAO airport designator
Station Type Date Time Source
LEXJ METAR 2021/03/07 08:00 UTC NOAA

LEXJ 070800Z 13003KT 9999 OVC031 09/06 Q1022


Station Type Date Time Source
LEXJ Decoded METAR 2021/03/07 08:00 UTC NOAA

Santander / Parayas, Spain (LEXJ) 43-26N 003-49W 9M
Mar 07, 2021 - 03:00 AM EST / 2021.03.07 0800 UTC
Wind: from the SE (130 degrees) at 3 MPH (3 KT):0
Visibility: greater than 7 mile(s):0
Sky conditions: overcast
Temperature: 48 F (9 C)
Dew Point: 42 F (6 C)
Relative Humidity: 81%
Pressure (altimeter): 30.18 in. Hg (1022 hPa)
ob: LEXJ 070800Z 13003KT 9999 OVC031 09/06 Q1022
cycle: 8

Station Type Date Time Source
LEXJ TAF 2021/03/07 03:27 UTC NOAA

TAF LEXJ 070200Z 0703/0803 VRB05KT 9999 SCT015 BKN030 TX12/0715Z TN05/0704Z
TEMPO 0711/0719 04010KT PROB30
TEMPO 0718/0721 RA

Example: see airport list